sensor_id;sensor_type;location;lat;lon;timestamp;temperature;humidity
33093;DHT22;19456;46.104;12.908;2023-06-24T00:00:56;23.30;99.90
33093;DHT22;19456;46.104;12.908;2023-06-24T00:03:22;23.20;99.90
33093;DHT22;19456;46.104;12.908;2023-06-24T00:05:47;23.30;99.90
33093;DHT22;19456;46.104;12.908;2023-06-24T00:08:15;23.30;99.90
33093;DHT22;19456;46.104;12.908;2023-06-24T00:10:47;23.30;99.90
33093;DHT22;19456;46.104;12.908;2023-06-24T00:13:13;23.30;99.90
33093;DHT22;19456;46.104;12.908;2023-06-24T00:15:39;23.20;99.90
33093;DHT22;19456;46.104;12.908;2023-06-24T00:18:08;23.30;99.90
33093;DHT22;19456;46.104;12.908;2023-06-24T00:20:34;23.40;99.90
33093;DHT22;19456;46.104;12.908;2023-06-24T00:23:00;23.30;99.90
33093;DHT22;19456;46.104;12.908;2023-06-24T00:25:25;23.20;99.90
33093;DHT22;19456;46.104;12.908;2023-06-24T00:27:51;23.10;99.90
33093;DHT22;19456;46.104;12.908;2023-06-24T00:30:17;23.10;99.90
33093;DHT22;19456;46.104;12.908;2023-06-24T00:32:42;23.10;99.90
33093;DHT22;19456;46.104;12.908;2023-06-24T00:35:08;23.20;99.90
33093;DHT22;19456;46.104;12.908;2023-06-24T00:37:33;23.20;99.90
33093;DHT22;19456;46.104;12.908;2023-06-24T00:39:59;23.30;99.90
33093;DHT22;19456;46.104;12.908;2023-06-24T00:42:25;23.20;99.90
33093;DHT22;19456;46.104;12.908;2023-06-24T00:44:50;23.20;99.90
33093;DHT22;19456;46.104;12.908;2023-06-24T00:47:16;23.20;99.90
33093;DHT22;19456;46.104;12.908;2023-06-24T00:49:42;23.10;99.90
33093;DHT22;19456;46.104;12.908;2023-06-24T00:52:11;23.10;99.90
33093;DHT22;19456;46.104;12.908;2023-06-24T00:54:43;23.20;99.90
33093;DHT22;19456;46.104;12.908;2023-06-24T00:57:09;23.20;99.90
33093;DHT22;19456;46.104;12.908;2023-06-24T00:59:35;23.20;99.90
33093;DHT22;19456;46.104;12.908;2023-06-24T01:02:01;23.30;99.90
33093;DHT22;19456;46.104;12.908;2023-06-24T01:04:27;23.30;99.90
33093;DHT22;19456;46.104;12.908;2023-06-24T01:06:53;23.30;99.90
33093;DHT22;19456;46.104;12.908;2023-06-24T01:09:18;23.20;99.90
33093;DHT22;19456;46.104;12.908;2023-06-24T01:11:45;23.20;99.90
33093;DHT22;19456;46.104;12.908;2023-06-24T01:14:10;23.20;99.90
33093;DHT22;19456;46.104;12.908;2023-06-24T01:16:44;23.20;99.90
33093;DHT22;19456;46.104;12.908;2023-06-24T01:24:48;23.10;99.90
33093;DHT22;19456;46.104;12.908;2023-06-24T01:27:23;23.10;99.90
33093;DHT22;19456;46.104;12.908;2023-06-24T01:29:53;23.00;99.90
33093;DHT22;19456;46.104;12.908;2023-06-24T01:32:34;23.00;99.90
33093;DHT22;19456;46.104;12.908;2023-06-24T01:37:35;22.90;99.90
33093;DHT22;19456;46.104;12.908;2023-06-24T01:42:34;22.90;99.90
33093;DHT22;19456;46.104;12.908;2023-06-24T01:45:01;22.90;99.90
33093;DHT22;19456;46.104;12.908;2023-06-24T01:47:27;22.90;99.90
33093;DHT22;19456;46.104;12.908;2023-06-24T01:49:54;22.90;99.90
33093;DHT22;19456;46.104;12.908;2023-06-24T01:52:23;22.90;99.90
33093;DHT22;19456;46.104;12.908;2023-06-24T01:54:51;22.90;99.90
33093;DHT22;19456;46.104;12.908;2023-06-24T01:57:17;22.90;99.90
33093;DHT22;19456;46.104;12.908;2023-06-24T01:59:44;22.80;99.90
33093;DHT22;19456;46.104;12.908;2023-06-24T02:02:10;22.70;99.90
33093;DHT22;19456;46.104;12.908;2023-06-24T02:04:37;22.80;99.90
33093;DHT22;19456;46.104;12.908;2023-06-24T02:07:03;22.80;99.90
33093;DHT22;19456;46.104;12.908;2023-06-24T02:09:29;22.90;99.90
33093;DHT22;19456;46.104;12.908;2023-06-24T02:11:57;22.80;99.90
33093;DHT22;19456;46.104;12.908;2023-06-24T02:14:23;22.60;99.90
33093;DHT22;19456;46.104;12.908;2023-06-24T02:16:49;22.50;99.90
33093;DHT22;19456;46.104;12.908;2023-06-24T02:19:16;22.50;99.90
33093;DHT22;19456;46.104;12.908;2023-06-24T02:21:43;22.50;99.90
33093;DHT22;19456;46.104;12.908;2023-06-24T02:24:09;22.50;99.90
33093;DHT22;19456;46.104;12.908;2023-06-24T02:26:35;22.50;99.90
33093;DHT22;19456;46.104;12.908;2023-06-24T02:29:06;22.50;99.90
33093;DHT22;19456;46.104;12.908;2023-06-24T02:31:33;22.50;99.90
33093;DHT22;19456;46.104;12.908;2023-06-24T02:33:59;22.50;99.90
33093;DHT22;19456;46.104;12.908;2023-06-24T02:36:24;22.60;99.90
33093;DHT22;19456;46.104;12.908;2023-06-24T02:38:50;22.50;99.90
33093;DHT22;19456;46.104;12.908;2023-06-24T02:41:15;22.30;99.90
33093;DHT22;19456;46.104;12.908;2023-06-24T02:43:41;22.30;99.90
33093;DHT22;19456;46.104;12.908;2023-06-24T02:46:06;22.30;99.90
33093;DHT22;19456;46.104;12.908;2023-06-24T02:48:33;22.20;99.90
33093;DHT22;19456;46.104;12.908;2023-06-24T02:51:00;22.20;99.90
33093;DHT22;19456;46.104;12.908;2023-06-24T02:53:27;22.20;99.90
33093;DHT22;19456;46.104;12.908;2023-06-24T02:55:53;22.20;99.90
33093;DHT22;19456;46.104;12.908;2023-06-24T02:58:19;22.20;99.90
33093;DHT22;19456;46.104;12.908;2023-06-24T03:00:45;22.00;99.90
33093;DHT22;19456;46.104;12.908;2023-06-24T03:03:11;22.00;99.90
33093;DHT22;19456;46.104;12.908;2023-06-24T03:05:37;22.10;99.90
33093;DHT22;19456;46.104;12.908;2023-06-24T03:08:02;22.00;99.90
33093;DHT22;19456;46.104;12.908;2023-06-24T03:10:31;22.00;99.90
33093;DHT22;19456;46.104;12.908;2023-06-24T03:12:56;22.00;99.90
33093;DHT22;19456;46.104;12.908;2023-06-24T03:15:22;21.90;99.90
33093;DHT22;19456;46.104;12.908;2023-06-24T03:17:48;22.00;99.90
33093;DHT22;19456;46.104;12.908;2023-06-24T03:20:13;21.90;99.90
33093;DHT22;19456;46.104;12.908;2023-06-24T03:22:39;21.90;99.90
33093;DHT22;19456;46.104;12.908;2023-06-24T03:25:04;22.00;99.90
33093;DHT22;19456;46.104;12.908;2023-06-24T03:27:30;21.80;99.90
33093;DHT22;19456;46.104;12.908;2023-06-24T03:29:56;21.80;99.90
33093;DHT22;19456;46.104;12.908;2023-06-24T03:32:22;21.80;99.90
33093;DHT22;19456;46.104;12.908;2023-06-24T03:34:48;21.90;99.90
33093;DHT22;19456;46.104;12.908;2023-06-24T03:37:13;21.80;99.90
33093;DHT22;19456;46.104;12.908;2023-06-24T03:39:39;21.80;99.90
33093;DHT22;19456;46.104;12.908;2023-06-24T03:42:04;21.90;99.90
33093;DHT22;19456;46.104;12.908;2023-06-24T03:44:30;22.00;99.90
33093;DHT22;19456;46.104;12.908;2023-06-24T03:46:55;22.00;99.90
33093;DHT22;19456;46.104;12.908;2023-06-24T03:49:21;22.00;99.90
33093;DHT22;19456;46.104;12.908;2023-06-24T03:51:47;22.00;99.90
33093;DHT22;19456;46.104;12.908;2023-06-24T03:54:12;22.00;99.90
33093;DHT22;19456;46.104;12.908;2023-06-24T03:56:38;22.10;99.90
33093;DHT22;19456;46.104;12.908;2023-06-24T03:59:03;22.10;99.90
33093;DHT22;19456;46.104;12.908;2023-06-24T04:01:29;22.20;99.90
33093;DHT22;19456;46.104;12.908;2023-06-24T04:03:57;22.20;99.90
33093;DHT22;19456;46.104;12.908;2023-06-24T04:06:23;22.30;99.90
33093;DHT22;19456;46.104;12.908;2023-06-24T04:08:48;22.30;99.90
33093;DHT22;19456;46.104;12.908;2023-06-24T04:11:14;22.30;99.90
33093;DHT22;19456;46.104;12.908;2023-06-24T04:13:40;22.30;99.90
33093;DHT22;19456;46.104;12.908;2023-06-24T04:16:05;22.30;99.90
33093;DHT22;19456;46.104;12.908;2023-06-24T04:18:31;22.30;99.90
33093;DHT22;19456;46.104;12.908;2023-06-24T04:20:56;22.40;99.90
33093;DHT22;19456;46.104;12.908;2023-06-24T04:23:22;22.30;99.90
33093;DHT22;19456;46.104;12.908;2023-06-24T04:25:48;22.30;99.90
33093;DHT22;19456;46.104;12.908;2023-06-24T04:28:14;22.30;99.90
33093;DHT22;19456;46.104;12.908;2023-06-24T04:30:40;22.30;99.90
33093;DHT22;19456;46.104;12.908;2023-06-24T04:33:05;22.40;99.90
33093;DHT22;19456;46.104;12.908;2023-06-24T04:35:31;22.50;99.90
33093;DHT22;19456;46.104;12.908;2023-06-24T04:37:56;22.60;99.90
33093;DHT22;19456;46.104;12.908;2023-06-24T04:40:22;22.80;99.90
33093;DHT22;19456;46.104;12.908;2023-06-24T04:42:47;22.80;99.90
33093;DHT22;19456;46.104;12.908;2023-06-24T04:45:13;22.90;99.90
33093;DHT22;19456;46.104;12.908;2023-06-24T04:47:39;22.80;99.90
33093;DHT22;19456;46.104;12.908;2023-06-24T04:50:05;22.70;99.90
33093;DHT22;19456;46.104;12.908;2023-06-24T04:52:30;22.60;99.90
33093;DHT22;19456;46.104;12.908;2023-06-24T04:54:56;22.60;99.90
33093;DHT22;19456;46.104;12.908;2023-06-24T04:57:31;22.60;99.90
33093;DHT22;19456;46.104;12.908;2023-06-24T04:59:57;22.60;99.90
33093;DHT22;19456;46.104;12.908;2023-06-24T05:02:23;22.60;99.90
33093;DHT22;19456;46.104;12.908;2023-06-24T05:04:49;22.70;99.90
33093;DHT22;19456;46.104;12.908;2023-06-24T05:07:14;22.70;99.90
33093;DHT22;19456;46.104;12.908;2023-06-24T05:09:40;22.70;99.90
33093;DHT22;19456;46.104;12.908;2023-06-24T05:12:06;22.80;99.90
33093;DHT22;19456;46.104;12.908;2023-06-24T05:14:33;22.80;99.90
33093;DHT22;19456;46.104;12.908;2023-06-24T05:16:59;22.80;99.90
33093;DHT22;19456;46.104;12.908;2023-06-24T05:19:25;22.70;99.90
33093;DHT22;19456;46.104;12.908;2023-06-24T05:21:50;22.60;99.90
33093;DHT22;19456;46.104;12.908;2023-06-24T05:24:16;22.60;99.90
33093;DHT22;19456;46.104;12.908;2023-06-24T05:26:41;22.60;99.90
33093;DHT22;19456;46.104;12.908;2023-06-24T05:29:07;22.70;99.90
33093;DHT22;19456;46.104;12.908;2023-06-24T05:31:32;22.70;99.90
33093;DHT22;19456;46.104;12.908;2023-06-24T05:33:58;22.70;99.90
33093;DHT22;19456;46.104;12.908;2023-06-24T05:36:23;22.80;99.90
33093;DHT22;19456;46.104;12.908;2023-06-24T05:38:49;22.50;99.90
33093;DHT22;19456;46.104;12.908;2023-06-24T05:41:15;22.40;99.90
33093;DHT22;19456;46.104;12.908;2023-06-24T05:43:42;22.40;99.90
33093;DHT22;19456;46.104;12.908;2023-06-24T05:46:08;22.50;99.90
33093;DHT22;19456;46.104;12.908;2023-06-24T05:48:33;22.50;99.90
33093;DHT22;19456;46.104;12.908;2023-06-24T05:50:59;22.70;99.90
33093;DHT22;19456;46.104;12.908;2023-06-24T05:53:24;22.90;99.90
33093;DHT22;19456;46.104;12.908;2023-06-24T05:55:50;22.90;99.90
33093;DHT22;19456;46.104;12.908;2023-06-24T05:58:15;23.10;99.90
33093;DHT22;19456;46.104;12.908;2023-06-24T06:00:41;23.30;99.90
33093;DHT22;19456;46.104;12.908;2023-06-24T06:03:07;23.50;99.90
33093;DHT22;19456;46.104;12.908;2023-06-24T06:05:32;23.60;99.90
33093;DHT22;19456;46.104;12.908;2023-06-24T06:07:58;23.70;99.90
33093;DHT22;19456;46.104;12.908;2023-06-24T06:10:23;23.70;99.90
33093;DHT22;19456;46.104;12.908;2023-06-24T06:12:49;23.70;99.90
33093;DHT22;19456;46.104;12.908;2023-06-24T06:15:15;23.80;99.90
33093;DHT22;19456;46.104;12.908;2023-06-24T06:17:40;23.80;99.90
33093;DHT22;19456;46.104;12.908;2023-06-24T06:20:06;23.90;99.90
33093;DHT22;19456;46.104;12.908;2023-06-24T06:22:32;24.00;99.90
33093;DHT22;19456;46.104;12.908;2023-06-24T06:25:03;24.00;99.90
33093;DHT22;19456;46.104;12.908;2023-06-24T06:27:28;24.00;99.90
33093;DHT22;19456;46.104;12.908;2023-06-24T06:29:54;24.00;99.90
33093;DHT22;19456;46.104;12.908;2023-06-24T06:32:19;24.10;99.90
33093;DHT22;19456;46.104;12.908;2023-06-24T06:34:45;24.20;99.90
33093;DHT22;19456;46.104;12.908;2023-06-24T06:37:10;24.40;99.90
33093;DHT22;19456;46.104;12.908;2023-06-24T06:39:36;24.50;99.90
33093;DHT22;19456;46.104;12.908;2023-06-24T06:42:01;24.60;99.90
33093;DHT22;19456;46.104;12.908;2023-06-24T06:44:27;24.80;99.90
33093;DHT22;19456;46.104;12.908;2023-06-24T06:46:52;24.80;99.90
33093;DHT22;19456;46.104;12.908;2023-06-24T06:49:18;25.00;99.90
33093;DHT22;19456;46.104;12.908;2023-06-24T06:51:44;24.90;99.90
33093;DHT22;19456;46.104;12.908;2023-06-24T06:54:09;25.00;99.90
33093;DHT22;19456;46.104;12.908;2023-06-24T06:56:35;25.00;99.90
33093;DHT22;19456;46.104;12.908;2023-06-24T06:59:00;24.90;99.90
33093;DHT22;19456;46.104;12.908;2023-06-24T07:01:26;24.70;99.90
33093;DHT22;19456;46.104;12.908;2023-06-24T07:03:51;24.70;99.90
33093;DHT22;19456;46.104;12.908;2023-06-24T07:06:20;24.90;99.90
33093;DHT22;19456;46.104;12.908;2023-06-24T07:08:45;25.00;99.90
33093;DHT22;19456;46.104;12.908;2023-06-24T07:11:11;24.90;99.90
33093;DHT22;19456;46.104;12.908;2023-06-24T07:13:37;25.00;99.90
33093;DHT22;19456;46.104;12.908;2023-06-24T07:16:02;24.80;99.90
33093;DHT22;19456;46.104;12.908;2023-06-24T07:18:28;24.80;99.90
33093;DHT22;19456;46.104;12.908;2023-06-24T07:20:56;24.70;99.90
33093;DHT22;19456;46.104;12.908;2023-06-24T07:23:21;24.60;99.90
33093;DHT22;19456;46.104;12.908;2023-06-24T07:25:47;24.60;99.90
33093;DHT22;19456;46.104;12.908;2023-06-24T07:28:13;24.60;99.90
33093;DHT22;19456;46.104;12.908;2023-06-24T07:30:40;24.70;99.90
33093;DHT22;19456;46.104;12.908;2023-06-24T07:33:05;24.60;99.90
33093;DHT22;19456;46.104;12.908;2023-06-24T07:35:31;24.70;99.90
33093;DHT22;19456;46.104;12.908;2023-06-24T07:38:00;24.80;99.90
33093;DHT22;19456;46.104;12.908;2023-06-24T07:40:26;24.90;99.90
33093;DHT22;19456;46.104;12.908;2023-06-24T07:42:53;24.90;99.90
33093;DHT22;19456;46.104;12.908;2023-06-24T07:45:18;24.90;99.90
33093;DHT22;19456;46.104;12.908;2023-06-24T07:47:44;25.00;99.90
33093;DHT22;19456;46.104;12.908;2023-06-24T07:50:09;25.10;99.90
33093;DHT22;19456;46.104;12.908;2023-06-24T07:52:38;25.00;99.90
33093;DHT22;19456;46.104;12.908;2023-06-24T07:55:04;25.10;99.90
33093;DHT22;19456;46.104;12.908;2023-06-24T07:57:30;25.20;99.90
33093;DHT22;19456;46.104;12.908;2023-06-24T07:59:55;25.30;99.90
33093;DHT22;19456;46.104;12.908;2023-06-24T08:02:21;25.40;99.90
33093;DHT22;19456;46.104;12.908;2023-06-24T08:04:47;25.60;99.90
33093;DHT22;19456;46.104;12.908;2023-06-24T08:07:12;25.80;99.90
33093;DHT22;19456;46.104;12.908;2023-06-24T08:09:38;26.00;99.90
33093;DHT22;19456;46.104;12.908;2023-06-24T08:12:03;26.10;99.90
33093;DHT22;19456;46.104;12.908;2023-06-24T08:14:29;26.20;99.90
33093;DHT22;19456;46.104;12.908;2023-06-24T08:16:55;26.30;99.90
33093;DHT22;19456;46.104;12.908;2023-06-24T08:19:20;26.20;99.90
33093;DHT22;19456;46.104;12.908;2023-06-24T08:21:46;26.40;99.90
33093;DHT22;19456;46.104;12.908;2023-06-24T08:24:11;26.60;99.90
33093;DHT22;19456;46.104;12.908;2023-06-24T08:26:37;26.80;99.90
33093;DHT22;19456;46.104;12.908;2023-06-24T08:29:02;27.10;99.90
33093;DHT22;19456;46.104;12.908;2023-06-24T08:31:28;27.10;99.90
33093;DHT22;19456;46.104;12.908;2023-06-24T08:33:54;27.30;99.90
33093;DHT22;19456;46.104;12.908;2023-06-24T08:36:22;27.10;99.90
33093;DHT22;19456;46.104;12.908;2023-06-24T08:38:49;27.20;99.90
33093;DHT22;19456;46.104;12.908;2023-06-24T08:41:14;27.20;99.90
33093;DHT22;19456;46.104;12.908;2023-06-24T08:43:40;27.20;99.90
33093;DHT22;19456;46.104;12.908;2023-06-24T08:46:06;27.30;99.90
33093;DHT22;19456;46.104;12.908;2023-06-24T08:48:31;27.20;99.90
33093;DHT22;19456;46.104;12.908;2023-06-24T08:50:58;27.40;99.90
33093;DHT22;19456;46.104;12.908;2023-06-24T08:53:26;27.20;99.90
33093;DHT22;19456;46.104;12.908;2023-06-24T08:55:52;27.30;99.90
33093;DHT22;19456;46.104;12.908;2023-06-24T08:58:18;27.40;99.90
33093;DHT22;19456;46.104;12.908;2023-06-24T09:00:44;27.60;99.90
33093;DHT22;19456;46.104;12.908;2023-06-24T09:03:10;27.80;99.90
33093;DHT22;19456;46.104;12.908;2023-06-24T09:05:35;27.80;99.90
33093;DHT22;19456;46.104;12.908;2023-06-24T09:08:01;27.60;99.90
33093;DHT22;19456;46.104;12.908;2023-06-24T09:10:33;27.60;99.90
33093;DHT22;19456;46.104;12.908;2023-06-24T09:13:03;27.60;99.90
33093;DHT22;19456;46.104;12.908;2023-06-24T09:15:32;27.60;99.90
33093;DHT22;19456;46.104;12.908;2023-06-24T09:17:58;27.70;99.90
33093;DHT22;19456;46.104;12.908;2023-06-24T09:20:26;27.70;99.90
33093;DHT22;19456;46.104;12.908;2023-06-24T09:22:51;27.80;99.90
33093;DHT22;19456;46.104;12.908;2023-06-24T09:25:22;28.00;99.90
33093;DHT22;19456;46.104;12.908;2023-06-24T09:27:48;28.10;99.90
33093;DHT22;19456;46.104;12.908;2023-06-24T09:30:20;28.10;99.90
33093;DHT22;19456;46.104;12.908;2023-06-24T09:32:47;27.90;99.90
33093;DHT22;19456;46.104;12.908;2023-06-24T09:35:13;27.90;99.90
33093;DHT22;19456;46.104;12.908;2023-06-24T09:37:38;27.80;99.90
33093;DHT22;19456;46.104;12.908;2023-06-24T09:40:04;27.70;99.90
33093;DHT22;19456;46.104;12.908;2023-06-24T09:42:32;27.80;99.90
33093;DHT22;19456;46.104;12.908;2023-06-24T09:44:57;27.80;99.90
33093;DHT22;19456;46.104;12.908;2023-06-24T09:47:23;27.70;99.90
33093;DHT22;19456;46.104;12.908;2023-06-24T09:49:53;27.80;99.90
33093;DHT22;19456;46.104;12.908;2023-06-24T09:52:19;27.80;99.90
33093;DHT22;19456;46.104;12.908;2023-06-24T09:54:46;27.90;99.90
33093;DHT22;19456;46.104;12.908;2023-06-24T09:57:12;28.00;99.90
33093;DHT22;19456;46.104;12.908;2023-06-24T09:59:38;28.00;99.90
33093;DHT22;19456;46.104;12.908;2023-06-24T10:02:04;28.10;99.90
33093;DHT22;19456;46.104;12.908;2023-06-24T10:04:36;28.30;99.90
33093;DHT22;19456;46.104;12.908;2023-06-24T10:07:04;28.40;99.90
33093;DHT22;19456;46.104;12.908;2023-06-24T10:09:30;28.50;99.90
33093;DHT22;19456;46.104;12.908;2023-06-24T10:11:56;28.40;99.90
33093;DHT22;19456;46.104;12.908;2023-06-24T10:14:21;28.50;99.90
33093;DHT22;19456;46.104;12.908;2023-06-24T10:16:47;28.70;99.90
33093;DHT22;19456;46.104;12.908;2023-06-24T10:19:19;28.80;99.90
33093;DHT22;19456;46.104;12.908;2023-06-24T10:21:45;28.90;99.70
33093;DHT22;19456;46.104;12.908;2023-06-24T10:24:27;29.10;98.90
33093;DHT22;19456;46.104;12.908;2023-06-24T10:26:53;29.20;98.20
33093;DHT22;19456;46.104;12.908;2023-06-24T10:29:18;29.30;98.00
33093;DHT22;19456;46.104;12.908;2023-06-24T10:31:55;29.20;97.90
33093;DHT22;19456;46.104;12.908;2023-06-24T10:34:34;29.00;97.90
33093;DHT22;19456;46.104;12.908;2023-06-24T10:37:03;28.90;98.10
33093;DHT22;19456;46.104;12.908;2023-06-24T10:39:36;29.10;98.80
33093;DHT22;19456;46.104;12.908;2023-06-24T10:44:47;29.30;97.70
33093;DHT22;19456;46.104;12.908;2023-06-24T10:47:12;29.50;97.10
33093;DHT22;19456;46.104;12.908;2023-06-24T10:49:38;29.80;96.90
33093;DHT22;19456;46.104;12.908;2023-06-24T10:52:04;30.10;97.10
33093;DHT22;19456;46.104;12.908;2023-06-24T10:54:29;30.20;95.90
33093;DHT22;19456;46.104;12.908;2023-06-24T10:56:55;30.40;96.70
33093;DHT22;19456;46.104;12.908;2023-06-24T10:59:21;30.70;97.10
33093;DHT22;19456;46.104;12.908;2023-06-24T11:01:53;30.90;96.20
33093;DHT22;19456;46.104;12.908;2023-06-24T11:04:21;31.20;95.30
33093;DHT22;19456;46.104;12.908;2023-06-24T11:06:59;31.30;94.60
33093;DHT22;19456;46.104;12.908;2023-06-24T11:09:25;31.40;94.50
33093;DHT22;19456;46.104;12.908;2023-06-24T11:11:50;31.30;95.30
33093;DHT22;19456;46.104;12.908;2023-06-24T11:14:16;31.70;94.20
33093;DHT22;19456;46.104;12.908;2023-06-24T11:16:41;31.90;93.40
33093;DHT22;19456;46.104;12.908;2023-06-24T11:19:11;32.20;93.40
33093;DHT22;19456;46.104;12.908;2023-06-24T11:21:53;32.40;93.30
33093;DHT22;19456;46.104;12.908;2023-06-24T11:24:19;32.40;92.20
33093;DHT22;19456;46.104;12.908;2023-06-24T11:26:45;32.70;92.40
33093;DHT22;19456;46.104;12.908;2023-06-24T11:29:11;33.10;92.30
33093;DHT22;19456;46.104;12.908;2023-06-24T11:31:36;33.50;91.40
33093;DHT22;19456;46.104;12.908;2023-06-24T11:34:03;33.80;91.50
33093;DHT22;19456;46.104;12.908;2023-06-24T11:36:29;34.30;90.40
33093;DHT22;19456;46.104;12.908;2023-06-24T11:38:54;34.30;87.60
33093;DHT22;19456;46.104;12.908;2023-06-24T11:41:20;34.30;89.80
33093;DHT22;19456;46.104;12.908;2023-06-24T11:43:46;34.50;89.20
33093;DHT22;19456;46.104;12.908;2023-06-24T11:46:25;35.00;88.40
33093;DHT22;19456;46.104;12.908;2023-06-24T11:48:51;34.60;85.60
33093;DHT22;19456;46.104;12.908;2023-06-24T11:51:16;35.50;86.60
33093;DHT22;19456;46.104;12.908;2023-06-24T11:53:42;36.20;84.20
33093;DHT22;19456;46.104;12.908;2023-06-24T11:56:08;36.70;81.80
33093;DHT22;19456;46.104;12.908;2023-06-24T11:58:34;36.30;80.50
33093;DHT22;19456;46.104;12.908;2023-06-24T12:01:01;35.70;81.80
33093;DHT22;19456;46.104;12.908;2023-06-24T12:03:30;35.80;80.60
33093;DHT22;19456;46.104;12.908;2023-06-24T12:05:57;34.50;79.90
33093;DHT22;19456;46.104;12.908;2023-06-24T12:08:23;33.90;81.40
33093;DHT22;19456;46.104;12.908;2023-06-24T12:10:48;34.00;81.50
33093;DHT22;19456;46.104;12.908;2023-06-24T12:13:14;34.10;82.70
33093;DHT22;19456;46.104;12.908;2023-06-24T12:15:40;34.50;80.80
33093;DHT22;19456;46.104;12.908;2023-06-24T12:18:06;34.70;81.60
33093;DHT22;19456;46.104;12.908;2023-06-24T12:20:31;34.70;81.10
33093;DHT22;19456;46.104;12.908;2023-06-24T12:22:58;34.60;82.30
33093;DHT22;19456;46.104;12.908;2023-06-24T12:25:24;34.50;83.40
33093;DHT22;19456;46.104;12.908;2023-06-24T12:27:49;35.10;82.10
33093;DHT22;19456;46.104;12.908;2023-06-24T12:30:15;35.70;79.80
33093;DHT22;19456;46.104;12.908;2023-06-24T12:32:42;36.10;79.50
33093;DHT22;19456;46.104;12.908;2023-06-24T12:35:08;36.40;78.90
33093;DHT22;19456;46.104;12.908;2023-06-24T12:37:34;36.90;78.20
33093;DHT22;19456;46.104;12.908;2023-06-24T12:40:00;37.50;75.90
33093;DHT22;19456;46.104;12.908;2023-06-24T12:42:26;37.90;75.90
33093;DHT22;19456;46.104;12.908;2023-06-24T12:44:52;38.00;73.00
33093;DHT22;19456;46.104;12.908;2023-06-24T12:47:18;38.30;73.60
33093;DHT22;19456;46.104;12.908;2023-06-24T12:49:43;38.40;72.30
33093;DHT22;19456;46.104;12.908;2023-06-24T12:52:09;38.40;72.60
33093;DHT22;19456;46.104;12.908;2023-06-24T12:54:35;38.20;71.70
33093;DHT22;19456;46.104;12.908;2023-06-24T12:57:03;38.50;69.20
33093;DHT22;19456;46.104;12.908;2023-06-24T12:59:29;38.80;69.70
33093;DHT22;19456;46.104;12.908;2023-06-24T13:01:55;38.60;68.40
33093;DHT22;19456;46.104;12.908;2023-06-24T13:04:20;38.30;70.00
33093;DHT22;19456;46.104;12.908;2023-06-24T13:06:48;38.50;69.50
33093;DHT22;19456;46.104;12.908;2023-06-24T13:09:14;38.80;68.60
33093;DHT22;19456;46.104;12.908;2023-06-24T13:11:40;38.80;68.00
33093;DHT22;19456;46.104;12.908;2023-06-24T13:14:05;39.30;66.80
33093;DHT22;19456;46.104;12.908;2023-06-24T13:16:31;39.70;66.10
33093;DHT22;19456;46.104;12.908;2023-06-24T13:18:57;39.50;66.10
33093;DHT22;19456;46.104;12.908;2023-06-24T13:21:22;38.70;67.10
33093;DHT22;19456;46.104;12.908;2023-06-24T13:23:48;38.50;66.50
33093;DHT22;19456;46.104;12.908;2023-06-24T13:26:14;38.40;66.30
33093;DHT22;19456;46.104;12.908;2023-06-24T13:28:39;37.90;67.60
33093;DHT22;19456;46.104;12.908;2023-06-24T13:31:05;38.70;66.80
33093;DHT22;19456;46.104;12.908;2023-06-24T13:33:31;38.80;65.90
33093;DHT22;19456;46.104;12.908;2023-06-24T13:35:56;39.20;66.30
33093;DHT22;19456;46.104;12.908;2023-06-24T13:38:22;39.60;64.60
33093;DHT22;19456;46.104;12.908;2023-06-24T13:40:47;39.90;63.50
33093;DHT22;19456;46.104;12.908;2023-06-24T13:43:13;39.70;63.10
33093;DHT22;19456;46.104;12.908;2023-06-24T13:45:39;39.10;65.20
33093;DHT22;19456;46.104;12.908;2023-06-24T13:48:04;39.30;65.70
33093;DHT22;19456;46.104;12.908;2023-06-24T13:50:30;39.00;64.30
33093;DHT22;19456;46.104;12.908;2023-06-24T13:52:56;37.60;66.70
33093;DHT22;19456;46.104;12.908;2023-06-24T13:55:21;37.60;67.20
33093;DHT22;19456;46.104;12.908;2023-06-24T13:57:47;37.60;67.90
33093;DHT22;19456;46.104;12.908;2023-06-24T14:00:13;37.30;67.50
33093;DHT22;19456;46.104;12.908;2023-06-24T14:02:39;36.60;67.30
33093;DHT22;19456;46.104;12.908;2023-06-24T14:05:05;37.20;66.40
33093;DHT22;19456;46.104;12.908;2023-06-24T14:07:30;37.50;66.80
33093;DHT22;19456;46.104;12.908;2023-06-24T14:09:56;37.80;67.70
33093;DHT22;19456;46.104;12.908;2023-06-24T14:12:22;37.90;66.20
33093;DHT22;19456;46.104;12.908;2023-06-24T14:14:47;38.70;66.60
33093;DHT22;19456;46.104;12.908;2023-06-24T14:17:13;39.40;63.60
33093;DHT22;19456;46.104;12.908;2023-06-24T14:19:39;39.10;63.90
33093;DHT22;19456;46.104;12.908;2023-06-24T14:22:05;38.80;63.20
33093;DHT22;19456;46.104;12.908;2023-06-24T14:24:31;38.10;64.40
33093;DHT22;19456;46.104;12.908;2023-06-24T14:26:57;37.30;66.90
33093;DHT22;19456;46.104;12.908;2023-06-24T14:29:22;36.70;67.20
33093;DHT22;19456;46.104;12.908;2023-06-24T14:31:48;36.30;68.30
33093;DHT22;19456;46.104;12.908;2023-06-24T14:34:13;35.80;69.50
33093;DHT22;19456;46.104;12.908;2023-06-24T14:36:39;35.50;70.50
33093;DHT22;19456;46.104;12.908;2023-06-24T14:39:05;34.90;71.70
33093;DHT22;19456;46.104;12.908;2023-06-24T14:41:30;34.60;71.60
33093;DHT22;19456;46.104;12.908;2023-06-24T14:43:56;34.40;72.10
33093;DHT22;19456;46.104;12.908;2023-06-24T14:46:21;34.10;72.80
33093;DHT22;19456;46.104;12.908;2023-06-24T14:48:47;33.60;75.20
33093;DHT22;19456;46.104;12.908;2023-06-24T14:51:12;33.20;75.40
33093;DHT22;19456;46.104;12.908;2023-06-24T14:53:38;32.70;77.20
33093;DHT22;19456;46.104;12.908;2023-06-24T14:56:05;32.30;77.50
33093;DHT22;19456;46.104;12.908;2023-06-24T14:58:31;32.50;76.60
33093;DHT22;19456;46.104;12.908;2023-06-24T15:00:56;32.80;77.00
33093;DHT22;19456;46.104;12.908;2023-06-24T15:03:22;33.00;76.20
33093;DHT22;19456;46.104;12.908;2023-06-24T15:05:47;33.10;77.20
33093;DHT22;19456;46.104;12.908;2023-06-24T15:08:13;33.10;78.20
33093;DHT22;19456;46.104;12.908;2023-06-24T15:10:39;33.20;78.00
33093;DHT22;19456;46.104;12.908;2023-06-24T15:13:04;33.10;78.50
33093;DHT22;19456;46.104;12.908;2023-06-24T15:15:31;33.10;77.60
33093;DHT22;19456;46.104;12.908;2023-06-24T15:17:56;33.10;77.20
33093;DHT22;19456;46.104;12.908;2023-06-24T15:20:22;33.20;78.00
33093;DHT22;19456;46.104;12.908;2023-06-24T15:22:47;33.30;78.30